sensor_id;sensor_type;location;lat;lon;timestamp;temperature;humidity
52656;SHT85;35474;51.032;6.998;2023-09-12T00:00:34;22.87;76.06
52656;SHT85;35474;51.032;6.998;2023-09-12T00:03:01;22.91;75.93
52656;SHT85;35474;51.032;6.998;2023-09-12T00:05:28;22.90;75.92
52656;SHT85;35474;51.032;6.998;2023-09-12T00:07:54;22.74;76.40
52656;SHT85;35474;51.032;6.998;2023-09-12T00:10:20;22.59;77.00
52656;SHT85;35474;51.032;6.998;2023-09-12T00:12:47;22.51;77.22
52656;SHT85;35474;51.032;6.998;2023-09-12T00:15:14;22.41;77.55
52656;SHT85;35474;51.032;6.998;2023-09-12T00:17:40;22.36;77.42
52656;SHT85;35474;51.032;6.998;2023-09-12T00:20:07;22.33;77.49
52656;SHT85;35474;51.032;6.998;2023-09-12T00:22:34;22.48;76.96
52656;SHT85;35474;51.032;6.998;2023-09-12T00:25:00;22.57;76.65
52656;SHT85;35474;51.032;6.998;2023-09-12T00:27:27;22.53;76.70
52656;SHT85;35474;51.032;6.998;2023-09-12T00:29:54;22.46;76.66
52656;SHT85;35474;51.032;6.998;2023-09-12T00:32:20;22.59;76.36
52656;SHT85;35474;51.032;6.998;2023-09-12T00:34:47;22.50;76.61
52656;SHT85;35474;51.032;6.998;2023-09-12T00:37:13;22.60;75.87
52656;SHT85;35474;51.032;6.998;2023-09-12T00:39:40;22.53;75.89
52656;SHT85;35474;51.032;6.998;2023-09-12T00:42:06;22.51;76.10
52656;SHT85;35474;51.032;6.998;2023-09-12T00:44:34;22.56;76.01
52656;SHT85;35474;51.032;6.998;2023-09-12T00:47:01;22.43;76.12
52656;SHT85;35474;51.032;6.998;2023-09-12T00:49:29;22.36;76.36
52656;SHT85;35474;51.032;6.998;2023-09-12T00:51:55;22.29;76.41
52656;SHT85;35474;51.032;6.998;2023-09-12T00:54:23;22.39;76.34
52656;SHT85;35474;51.032;6.998;2023-09-12T00:56:49;22.33;76.38
52656;SHT85;35474;51.032;6.998;2023-09-12T00:59:16;22.35;76.36
52656;SHT85;35474;51.032;6.998;2023-09-12T01:01:44;22.26;76.67
52656;SHT85;35474;51.032;6.998;2023-09-12T01:04:11;22.08;77.51
52656;SHT85;35474;51.032;6.998;2023-09-12T01:06:58;21.75;78.42
52656;SHT85;35474;51.032;6.998;2023-09-12T01:09:24;21.64;79.16
52656;SHT85;35474;51.032;6.998;2023-09-12T01:11:51;21.57;79.30
52656;SHT85;35474;51.032;6.998;2023-09-12T01:14:18;21.51;79.65
52656;SHT85;35474;51.032;6.998;2023-09-12T01:16:44;21.51;79.52
52656;SHT85;35474;51.032;6.998;2023-09-12T01:19:11;21.71;78.99
52656;SHT85;35474;51.032;6.998;2023-09-12T01:27:46;21.26;80.36
52656;SHT85;35474;51.032;6.998;2023-09-12T01:30:17;21.40;80.05
52656;SHT85;35474;51.032;6.998;2023-09-12T01:32:44;21.52;79.39
52656;SHT85;35474;51.032;6.998;2023-09-12T01:35:11;21.51;79.43
52656;SHT85;35474;51.032;6.998;2023-09-12T01:37:38;21.45;79.84
52656;SHT85;35474;51.032;6.998;2023-09-12T01:40:05;21.30;80.21
52656;SHT85;35474;51.032;6.998;2023-09-12T01:42:36;21.41;80.20
52656;SHT85;35474;51.032;6.998;2023-09-12T01:45:04;21.52;79.67
52656;SHT85;35474;51.032;6.998;2023-09-12T01:47:33;21.42;79.89
52656;SHT85;35474;51.032;6.998;2023-09-12T01:50:01;21.54;79.60
52656;SHT85;35474;51.032;6.998;2023-09-12T01:52:29;21.74;78.95
52656;SHT85;35474;51.032;6.998;2023-09-12T01:54:56;21.86;78.19
52656;SHT85;35474;51.032;6.998;2023-09-12T01:57:23;21.79;78.43
52656;SHT85;35474;51.032;6.998;2023-09-12T01:59:50;21.81;78.14
52656;SHT85;35474;51.032;6.998;2023-09-12T02:02:16;21.85;77.96
52656;SHT85;35474;51.032;6.998;2023-09-12T02:04:51;21.77;78.17
52656;SHT85;35474;51.032;6.998;2023-09-12T02:07:37;21.64;78.46
52656;SHT85;35474;51.032;6.998;2023-09-12T02:10:05;21.68;78.31
52656;SHT85;35474;51.032;6.998;2023-09-12T02:12:32;21.58;78.47
52656;SHT85;35474;51.032;6.998;2023-09-12T02:14:58;21.60;78.43
52656;SHT85;35474;51.032;6.998;2023-09-12T02:17:25;21.57;78.67
52656;SHT85;35474;51.032;6.998;2023-09-12T02:19:52;21.55;78.70
52656;SHT85;35474;51.032;6.998;2023-09-12T02:22:18;21.62;78.44
52656;SHT85;35474;51.032;6.998;2023-09-12T02:24:45;21.58;78.29
52656;SHT85;35474;51.032;6.998;2023-09-12T02:27:11;21.60;78.05
52656;SHT85;35474;51.032;6.998;2023-09-12T02:29:38;21.54;78.23
52656;SHT85;35474;51.032;6.998;2023-09-12T02:32:05;21.51;78.19
52656;SHT85;35474;51.032;6.998;2023-09-12T02:34:32;21.42;78.33
52656;SHT85;35474;51.032;6.998;2023-09-12T02:36:59;21.42;78.28
52656;SHT85;35474;51.032;6.998;2023-09-12T02:39:26;21.41;78.36
52656;SHT85;35474;51.032;6.998;2023-09-12T02:41:52;21.48;78.03
52656;SHT85;35474;51.032;6.998;2023-09-12T02:44:19;21.52;78.01
52656;SHT85;35474;51.032;6.998;2023-09-12T02:46:46;21.57;77.76
52656;SHT85;35474;51.032;6.998;2023-09-12T02:49:14;21.67;77.26
52656;SHT85;35474;51.032;6.998;2023-09-12T02:51:42;21.71;76.81
52656;SHT85;35474;51.032;6.998;2023-09-12T02:54:08;21.65;77.00
52656;SHT85;35474;51.032;6.998;2023-09-12T02:56:35;21.74;76.93
52656;SHT85;35474;51.032;6.998;2023-09-12T02:59:01;21.75;76.89
52656;SHT85;35474;51.032;6.998;2023-09-12T03:01:28;21.75;76.91
52656;SHT85;35474;51.032;6.998;2023-09-12T03:03:54;21.60;77.59
52656;SHT85;35474;51.032;6.998;2023-09-12T03:06:21;21.69;77.47
52656;SHT85;35474;51.032;6.998;2023-09-12T03:08:48;21.71;77.36
52656;SHT85;35474;51.032;6.998;2023-09-12T03:11:14;21.60;77.74
52656;SHT85;35474;51.032;6.998;2023-09-12T03:13:41;21.64;77.78
52656;SHT85;35474;51.032;6.998;2023-09-12T03:16:11;21.65;77.46
52656;SHT85;35474;51.032;6.998;2023-09-12T03:18:39;21.62;77.65
52656;SHT85;35474;51.032;6.998;2023-09-12T03:21:06;21.61;77.55
52656;SHT85;35474;51.032;6.998;2023-09-12T03:23:33;21.65;77.26
52656;SHT85;35474;51.032;6.998;2023-09-12T03:26:06;21.55;77.42
52656;SHT85;35474;51.032;6.998;2023-09-12T03:28:33;21.54;77.50
52656;SHT85;35474;51.032;6.998;2023-09-12T03:31:06;21.58;77.63
52656;SHT85;35474;51.032;6.998;2023-09-12T03:33:34;21.55;77.50
52656;SHT85;35474;51.032;6.998;2023-09-12T03:36:01;21.45;77.76
52656;SHT85;35474;51.032;6.998;2023-09-12T03:38:28;21.52;77.84
52656;SHT85;35474;51.032;6.998;2023-09-12T03:40:54;21.58;77.55
52656;SHT85;35474;51.032;6.998;2023-09-12T03:43:21;21.51;77.85
52656;SHT85;35474;51.032;6.998;2023-09-12T03:45:47;21.57;77.76
52656;SHT85;35474;51.032;6.998;2023-09-12T03:48:14;21.67;77.23
52656;SHT85;35474;51.032;6.998;2023-09-12T03:50:41;21.64;77.34
52656;SHT85;35474;51.032;6.998;2023-09-12T03:53:08;21.68;77.06
52656;SHT85;35474;51.032;6.998;2023-09-12T03:55:34;21.79;77.05
52656;SHT85;35474;51.032;6.998;2023-09-12T03:58:01;21.74;76.87
52656;SHT85;35474;51.032;6.998;2023-09-12T04:00:28;21.85;76.62
52656;SHT85;35474;51.032;6.998;2023-09-12T04:02:55;21.79;76.44
52656;SHT85;35474;51.032;6.998;2023-09-12T04:05:21;21.89;76.28
52656;SHT85;35474;51.032;6.998;2023-09-12T04:07:48;21.98;76.11
52656;SHT85;35474;51.032;6.998;2023-09-12T04:10:15;21.98;75.88
52656;SHT85;35474;51.032;6.998;2023-09-12T04:12:41;22.16;75.20
52656;SHT85;35474;51.032;6.998;2023-09-12T04:15:08;22.08;75.54
52656;SHT85;35474;51.032;6.998;2023-09-12T04:17:35;21.95;75.59
52656;SHT85;35474;51.032;6.998;2023-09-12T04:20:01;21.99;75.40
52656;SHT85;35474;51.032;6.998;2023-09-12T04:22:28;21.99;75.22
52656;SHT85;35474;51.032;6.998;2023-09-12T04:24:55;22.00;75.21
52656;SHT85;35474;51.032;6.998;2023-09-12T04:27:21;22.03;75.37
52656;SHT85;35474;51.032;6.998;2023-09-12T04:29:48;21.93;75.52
52656;SHT85;35474;51.032;6.998;2023-09-12T04:32:15;22.05;75.42
52656;SHT85;35474;51.032;6.998;2023-09-12T04:34:43;22.16;74.95
52656;SHT85;35474;51.032;6.998;2023-09-12T04:37:09;22.13;74.87
52656;SHT85;35474;51.032;6.998;2023-09-12T04:39:36;22.12;74.83
52656;SHT85;35474;51.032;6.998;2023-09-12T04:42:02;22.15;74.74
52656;SHT85;35474;51.032;6.998;2023-09-12T04:44:34;22.15;74.71
52656;SHT85;35474;51.032;6.998;2023-09-12T04:47:02;22.12;74.83
52656;SHT85;35474;51.032;6.998;2023-09-12T04:49:29;22.20;74.47
52656;SHT85;35474;51.032;6.998;2023-09-12T04:51:55;22.35;74.21
52656;SHT85;35474;51.032;6.998;2023-09-12T04:54:22;22.20;74.19
52656;SHT85;35474;51.032;6.998;2023-09-12T04:56:49;22.15;74.43
52656;SHT85;35474;51.032;6.998;2023-09-12T04:59:16;22.10;74.87
52656;SHT85;35474;51.032;6.998;2023-09-12T05:01:42;21.95;75.50
52656;SHT85;35474;51.032;6.998;2023-09-12T05:04:09;21.88;76.19
52656;SHT85;35474;51.032;6.998;2023-09-12T05:06:36;21.89;76.12
52656;SHT85;35474;51.032;6.998;2023-09-12T05:09:02;21.92;75.91
52656;SHT85;35474;51.032;6.998;2023-09-12T05:11:29;22.02;75.30
52656;SHT85;35474;51.032;6.998;2023-09-12T05:13:55;21.92;75.65
52656;SHT85;35474;51.032;6.998;2023-09-12T05:16:22;22.09;75.37
52656;SHT85;35474;51.032;6.998;2023-09-12T05:18:49;21.89;75.38
52656;SHT85;35474;51.032;6.998;2023-09-12T05:21:17;21.74;76.04
52656;SHT85;35474;51.032;6.998;2023-09-12T05:23:43;21.69;76.01
52656;SHT85;35474;51.032;6.998;2023-09-12T05:26:10;21.69;76.18
52656;SHT85;35474;51.032;6.998;2023-09-12T05:28:36;21.69;76.19
52656;SHT85;35474;51.032;6.998;2023-09-12T05:31:03;21.44;76.96
52656;SHT85;35474;51.032;6.998;2023-09-12T05:33:30;21.32;77.63
52656;SHT85;35474;51.032;6.998;2023-09-12T05:35:59;21.38;77.78
52656;SHT85;35474;51.032;6.998;2023-09-12T05:38:25;21.17;78.07
52656;SHT85;35474;51.032;6.998;2023-09-12T05:40:52;21.19;77.94
52656;SHT85;35474;51.032;6.998;2023-09-12T05:43:20;21.32;77.77
52656;SHT85;35474;51.032;6.998;2023-09-12T05:45:47;21.47;77.18
52656;SHT85;35474;51.032;6.998;2023-09-12T05:48:13;21.75;76.84
52656;SHT85;35474;51.032;6.998;2023-09-12T05:50:40;21.68;76.79
52656;SHT85;35474;51.032;6.998;2023-09-12T05:53:08;21.68;77.12
52656;SHT85;35474;51.032;6.998;2023-09-12T05:55:34;21.57;77.56
52656;SHT85;35474;51.032;6.998;2023-09-12T05:58:01;21.55;77.44
52656;SHT85;35474;51.032;6.998;2023-09-12T06:00:32;21.88;76.88
52656;SHT85;35474;51.032;6.998;2023-09-12T06:02:59;22.09;75.97
52656;SHT85;35474;51.032;6.998;2023-09-12T06:05:26;22.27;75.39
52656;SHT85;35474;51.032;6.998;2023-09-12T06:07:54;22.22;75.01
52656;SHT85;35474;51.032;6.998;2023-09-12T06:10:21;22.39;74.37
52656;SHT85;35474;51.032;6.998;2023-09-12T06:12:47;22.63;73.78
52656;SHT85;35474;51.032;6.998;2023-09-12T06:15:16;22.87;73.38
52656;SHT85;35474;51.032;6.998;2023-09-12T06:17:42;22.95;72.48
52656;SHT85;35474;51.032;6.998;2023-09-12T06:20:09;22.91;72.72
52656;SHT85;35474;51.032;6.998;2023-09-12T06:22:36;22.85;73.26
52656;SHT85;35474;51.032;6.998;2023-09-12T06:25:03;22.90;73.58
52656;SHT85;35474;51.032;6.998;2023-09-12T06:27:29;22.83;74.33
52656;SHT85;35474;51.032;6.998;2023-09-12T06:32:34;22.66;75.26
52656;SHT85;35474;51.032;6.998;2023-09-12T06:35:01;22.56;75.98
52656;SHT85;35474;51.032;6.998;2023-09-12T06:37:28;22.50;76.45
52656;SHT85;35474;51.032;6.998;2023-09-12T06:39:54;22.64;75.97
52656;SHT85;35474;51.032;6.998;2023-09-12T06:42:21;22.68;75.88
52656;SHT85;35474;51.032;6.998;2023-09-12T06:44:47;23.02;74.92
52656;SHT85;35474;51.032;6.998;2023-09-12T06:47:14;23.19;74.10
52656;SHT85;35474;51.032;6.998;2023-09-12T06:49:43;23.25;73.78
52656;SHT85;35474;51.032;6.998;2023-09-12T06:52:13;23.31;73.48
52656;SHT85;35474;51.032;6.998;2023-09-12T06:54:40;23.07;74.32
52656;SHT85;35474;51.032;6.998;2023-09-12T06:57:09;23.21;73.81
52656;SHT85;35474;51.032;6.998;2023-09-12T06:59:36;23.32;73.45
52656;SHT85;35474;51.032;6.998;2023-09-12T07:02:03;23.45;72.85
52656;SHT85;35474;51.032;6.998;2023-09-12T07:04:30;23.56;72.33
52656;SHT85;35474;51.032;6.998;2023-09-12T07:06:57;23.90;71.37
52656;SHT85;35474;51.032;6.998;2023-09-12T07:09:24;24.07;70.61
52656;SHT85;35474;51.032;6.998;2023-09-12T07:11:50;24.49;69.04
52656;SHT85;35474;51.032;6.998;2023-09-12T07:14:18;24.79;67.71
52656;SHT85;35474;51.032;6.998;2023-09-12T07:16:44;24.78;67.00
52656;SHT85;35474;51.032;6.998;2023-09-12T07:19:11;24.37;68.21
52656;SHT85;35474;51.032;6.998;2023-09-12T07:21:38;24.13;68.73
52656;SHT85;35474;51.032;6.998;2023-09-12T07:24:05;24.04;69.09
52656;SHT85;35474;51.032;6.998;2023-09-12T07:26:32;24.14;68.71
52656;SHT85;35474;51.032;6.998;2023-09-12T07:28:58;24.13;68.72
52656;SHT85;35474;51.032;6.998;2023-09-12T07:31:28;24.23;68.29
52656;SHT85;35474;51.032;6.998;2023-09-12T07:33:55;24.32;68.05
52656;SHT85;35474;51.032;6.998;2023-09-12T07:36:22;24.58;66.93
52656;SHT85;35474;51.032;6.998;2023-09-12T07:38:49;24.48;67.46
52656;SHT85;35474;51.032;6.998;2023-09-12T07:41:16;24.62;67.55
52656;SHT85;35474;51.032;6.998;2023-09-12T07:43:43;25.12;66.04
52656;SHT85;35474;51.032;6.998;2023-09-12T07:46:10;25.61;64.86
52656;SHT85;35474;51.032;6.998;2023-09-12T07:48:36;25.60;64.55
52656;SHT85;35474;51.032;6.998;2023-09-12T07:51:11;25.88;63.78
52656;SHT85;35474;51.032;6.998;2023-09-12T07:53:38;26.52;62.21
52656;SHT85;35474;51.032;6.998;2023-09-12T07:56:06;26.69;61.00
52656;SHT85;35474;51.032;6.998;2023-09-12T07:58:34;26.67;60.99
52656;SHT85;35474;51.032;6.998;2023-09-12T08:01:04;26.47;61.44
52656;SHT85;35474;51.032;6.998;2023-09-12T08:03:33;26.26;62.16
52656;SHT85;35474;51.032;6.998;2023-09-12T08:06:01;26.82;60.70
52656;SHT85;35474;51.032;6.998;2023-09-12T08:08:29;27.71;58.49
52656;SHT85;35474;51.032;6.998;2023-09-12T08:10:58;27.86;57.49
52656;SHT85;35474;51.032;6.998;2023-09-12T08:13:28;27.86;57.55
52656;SHT85;35474;51.032;6.998;2023-09-12T08:15:56;28.26;56.86
52656;SHT85;35474;51.032;6.998;2023-09-12T08:18:25;28.02;56.79
52656;SHT85;35474;51.032;6.998;2023-09-12T08:20:55;27.58;57.57
52656;SHT85;35474;51.032;6.998;2023-09-12T08:23:21;28.04;56.79
52656;SHT85;35474;51.032;6.998;2023-09-12T08:25:48;28.26;56.17
52656;SHT85;35474;51.032;6.998;2023-09-12T08:28:16;29.32;54.12
52656;SHT85;35474;51.032;6.998;2023-09-12T08:30:43;28.89;55.20
52656;SHT85;35474;51.032;6.998;2023-09-12T08:33:12;28.56;55.68
52656;SHT85;35474;51.032;6.998;2023-09-12T08:35:39;28.87;55.70
52656;SHT85;35474;51.032;6.998;2023-09-12T08:38:06;29.59;53.53
52656;SHT85;35474;51.032;6.998;2023-09-12T08:40:33;29.30;54.39
52656;SHT85;35474;51.032;6.998;2023-09-12T08:43:01;29.66;53.86
52656;SHT85;35474;51.032;6.998;2023-09-12T08:45:31;29.50;53.90
52656;SHT85;35474;51.032;6.998;2023-09-12T08:47:59;29.60;53.19
52656;SHT85;35474;51.032;6.998;2023-09-12T08:50:29;29.83;52.85
52656;SHT85;35474;51.032;6.998;2023-09-12T08:52:59;29.72;53.29
52656;SHT85;35474;51.032;6.998;2023-09-12T08:55:33;29.62;53.05
52656;SHT85;35474;51.032;6.998;2023-09-12T08:58:04;29.74;53.07
52656;SHT85;35474;51.032;6.998;2023-09-12T09:00:32;30.21;52.10
52656;SHT85;35474;51.032;6.998;2023-09-12T09:03:00;30.69;50.77
52656;SHT85;35474;51.032;6.998;2023-09-12T09:05:28;30.62;50.62
52656;SHT85;35474;51.032;6.998;2023-09-12T09:07:57;31.03;49.38
52656;SHT85;35474;51.032;6.998;2023-09-12T09:10:25;30.45;50.74
52656;SHT85;35474;51.032;6.998;2023-09-12T09:13:13;30.83;50.52
52656;SHT85;35474;51.032;6.998;2023-09-12T09:15:40;30.11;52.17
52656;SHT85;35474;51.032;6.998;2023-09-12T09:18:10;29.05;54.18
52656;SHT85;35474;51.032;6.998;2023-09-12T09:20:39;28.60;55.23
52656;SHT85;35474;51.032;6.998;2023-09-12T09:23:08;28.50;55.70
52656;SHT85;35474;51.032;6.998;2023-09-12T09:25:38;28.48;55.65
52656;SHT85;35474;51.032;6.998;2023-09-12T09:28:21;27.13;59.45
52656;SHT85;35474;51.032;6.998;2023-09-12T09:30:49;27.32;59.27
52656;SHT85;35474;51.032;6.998;2023-09-12T09:33:21;27.49;58.70
52656;SHT85;35474;51.032;6.998;2023-09-12T09:35:48;27.46;58.94
52656;SHT85;35474;51.032;6.998;2023-09-12T09:38:18;27.27;59.33
52656;SHT85;35474;51.032;6.998;2023-09-12T09:40:46;27.00;60.09
52656;SHT85;35474;51.032;6.998;2023-09-12T09:43:14;26.02;63.76
52656;SHT85;35474;51.032;6.998;2023-09-12T09:45:46;25.67;65.92
52656;SHT85;35474;51.032;6.998;2023-09-12T09:50:47;25.75;65.87
52656;SHT85;35474;51.032;6.998;2023-09-12T09:53:14;26.02;64.84
52656;SHT85;35474;51.032;6.998;2023-09-12T09:55:41;26.50;63.27
52656;SHT85;35474;51.032;6.998;2023-09-12T09:58:08;26.18;64.28
52656;SHT85;35474;51.032;6.998;2023-09-12T10:00:43;26.82;62.55
52656;SHT85;35474;51.032;6.998;2023-09-12T10:03:11;28.21;59.61
52656;SHT85;35474;51.032;6.998;2023-09-12T10:05:42;29.65;55.47
52656;SHT85;35474;51.032;6.998;2023-09-12T10:08:11;30.17;53.53
52656;SHT85;35474;51.032;6.998;2023-09-12T10:10:43;29.09;56.05
52656;SHT85;35474;51.032;6.998;2023-09-12T10:13:11;29.28;55.79
52656;SHT85;35474;51.032;6.998;2023-09-12T10:15:40;29.90;53.94
52656;SHT85;35474;51.032;6.998;2023-09-12T10:18:10;29.98;54.28
52656;SHT85;35474;51.032;6.998;2023-09-12T10:20:58;29.83;54.98
52656;SHT85;35474;51.032;6.998;2023-09-12T10:23:41;30.46;52.75
52656;SHT85;35474;51.032;6.998;2023-09-12T10:26:12;29.05;56.34
52656;SHT85;35474;51.032;6.998;2023-09-12T10:28:43;29.32;56.10
52656;SHT85;35474;51.032;6.998;2023-09-12T10:31:12;29.40;56.14
52656;SHT85;35474;51.032;6.998;2023-09-12T10:33:39;30.52;52.97
52656;SHT85;35474;51.032;6.998;2023-09-12T10:36:08;29.49;55.61
52656;SHT85;35474;51.032;6.998;2023-09-12T10:38:44;29.36;54.84
52656;SHT85;35474;51.032;6.998;2023-09-12T10:41:13;29.05;56.08
52656;SHT85;35474;51.032;6.998;2023-09-12T10:43:44;29.33;55.74
52656;SHT85;35474;51.032;6.998;2023-09-12T10:46:16;29.39;55.65
52656;SHT85;35474;51.032;6.998;2023-09-12T10:48:47;30.07;53.93
52656;SHT85;35474;51.032;6.998;2023-09-12T10:51:15;28.79;56.21
52656;SHT85;35474;51.032;6.998;2023-09-12T10:53:47;28.60;57.53
52656;SHT85;35474;51.032;6.998;2023-09-12T10:56:20;29.66;54.85
52656;SHT85;35474;51.032;6.998;2023-09-12T11:01:36;29.63;54.31
52656;SHT85;35474;51.032;6.998;2023-09-12T11:06:49;29.97;53.84
52656;SHT85;35474;51.032;6.998;2023-09-12T11:09:17;30.18;53.14
52656;SHT85;35474;51.032;6.998;2023-09-12T11:11:47;30.72;52.44
52656;SHT85;35474;51.032;6.998;2023-09-12T11:14:15;31.10;50.95
52656;SHT85;35474;51.032;6.998;2023-09-12T11:19:48;31.54;49.68
52656;SHT85;35474;51.032;6.998;2023-09-12T11:24:49;30.00;53.80
52656;SHT85;35474;51.032;6.998;2023-09-12T11:27:19;30.73;51.37
52656;SHT85;35474;51.032;6.998;2023-09-12T11:29:46;31.65;49.59
52656;SHT85;35474;51.032;6.998;2023-09-12T11:32:25;32.43;48.20
52656;SHT85;35474;51.032;6.998;2023-09-12T11:34:54;32.49;47.70
52656;SHT85;35474;51.032;6.998;2023-09-12T11:37:24;32.53;47.80
52656;SHT85;35474;51.032;6.998;2023-09-12T11:39:53;31.07;50.25
52656;SHT85;35474;51.032;6.998;2023-09-12T11:42:20;31.30;50.21
52656;SHT85;35474;51.032;6.998;2023-09-12T11:44:49;32.43;48.06
52656;SHT85;35474;51.032;6.998;2023-09-12T11:47:17;33.35;46.14
52656;SHT85;35474;51.032;6.998;2023-09-12T11:49:44;33.98;44.60
52656;SHT85;35474;51.032;6.998;2023-09-12T11:52:12;33.59;45.37
52656;SHT85;35474;51.032;6.998;2023-09-12T11:54:43;33.44;45.74
52656;SHT85;35474;51.032;6.998;2023-09-12T11:57:12;32.65;47.31
52656;SHT85;35474;51.032;6.998;2023-09-12T11:59:41;33.10;46.28
52656;SHT85;35474;51.032;6.998;2023-09-12T12:02:18;32.12;48.44
52656;SHT85;35474;51.032;6.998;2023-09-12T12:04:45;32.56;48.07
52656;SHT85;35474;51.032;6.998;2023-09-12T12:07:12;32.65;47.84
52656;SHT85;35474;51.032;6.998;2023-09-12T12:09:39;31.97;49.21
52656;SHT85;35474;51.032;6.998;2023-09-12T12:12:12;32.56;47.50
52656;SHT85;35474;51.032;6.998;2023-09-12T12:14:41;31.97;48.50
52656;SHT85;35474;51.032;6.998;2023-09-12T12:17:08;31.07;51.13
52656;SHT85;35474;51.032;6.998;2023-09-12T12:19:36;32.47;48.15
52656;SHT85;35474;51.032;6.998;2023-09-12T12:22:04;32.24;48.30
52656;SHT85;35474;51.032;6.998;2023-09-12T12:24:36;33.04;46.89
52656;SHT85;35474;51.032;6.998;2023-09-12T12:27:14;32.31;47.91
52656;SHT85;35474;51.032;6.998;2023-09-12T12:29:41;31.03;50.85
52656;SHT85;35474;51.032;6.998;2023-09-12T12:32:10;30.18;52.21
52656;SHT85;35474;51.032;6.998;2023-09-12T12:34:37;30.52;51.90
52656;SHT85;35474;51.032;6.998;2023-09-12T12:37:28;32.28;48.41
52656;SHT85;35474;51.032;6.998;2023-09-12T12:40:00;33.08;46.62
52656;SHT85;35474;51.032;6.998;2023-09-12T12:42:32;33.10;46.40
52656;SHT85;35474;51.032;6.998;2023-09-12T12:45:18;32.84;46.70
52656;SHT85;35474;51.032;6.998;2023-09-12T12:47:46;31.84;48.26
52656;SHT85;35474;51.032;6.998;2023-09-12T12:50:17;31.06;49.92
52656;SHT85;35474;51.032;6.998;2023-09-12T12:52:46;30.80;50.70
52656;SHT85;35474;51.032;6.998;2023-09-12T12:55:15;30.32;51.32
52656;SHT85;35474;51.032;6.998;2023-09-12T12:57:43;30.27;51.76
52656;SHT85;35474;51.032;6.998;2023-09-12T13:00:11;31.07;50.28
52656;SHT85;35474;51.032;6.998;2023-09-12T13:02:40;31.94;47.78
52656;SHT85;35474;51.032;6.998;2023-09-12T13:07:48;31.19;48.86
52656;SHT85;35474;51.032;6.998;2023-09-12T13:10:16;30.14;51.24
52656;SHT85;35474;51.032;6.998;2023-09-12T13:12:43;31.03;49.31
52656;SHT85;35474;51.032;6.998;2023-09-12T13:15:12;31.94;47.89
52656;SHT85;35474;51.032;6.998;2023-09-12T13:17:43;31.29;48.89
52656;SHT85;35474;51.032;6.998;2023-09-12T13:20:10;31.41;48.74
52656;SHT85;35474;51.032;6.998;2023-09-12T13:22:37;31.45;48.63
52656;SHT85;35474;51.032;6.998;2023-09-12T13:25:05;31.65;47.94
52656;SHT85;35474;51.032;6.998;2023-09-12T13:27:33;30.97;49.29
52656;SHT85;35474;51.032;6.998;2023-09-12T13:30:00;31.00;49.56
52656;SHT85;35474;51.032;6.998;2023-09-12T13:32:27;31.13;49.00
52656;SHT85;35474;51.032;6.998;2023-09-12T13:34:54;30.75;49.24
52656;SHT85;35474;51.032;6.998;2023-09-12T13:37:20;31.16;48.62
52656;SHT85;35474;51.032;6.998;2023-09-12T13:39:47;31.24;48.27
52656;SHT85;35474;51.032;6.998;2023-09-12T13:42:16;31.70;47.46
52656;SHT85;35474;51.032;6.998;2023-09-12T13:44:47;31.54;47.01
52656;SHT85;35474;51.032;6.998;2023-09-12T13:47:15;31.41;46.94
52656;SHT85;35474;51.032;6.998;2023-09-12T13:49:49;31.89;46.35
52656;SHT85;35474;51.032;6.998;2023-09-12T13:52:20;32.10;45.92
52656;SHT85;35474;51.032;6.998;2023-09-12T13:54:47;32.93;44.47
52656;SHT85;35474;51.032;6.998;2023-09-12T13:57:15;32.74;44.98
52656;SHT85;35474;51.032;6.998;2023-09-12T13:59:42;32.35;45.63
52656;SHT85;35474;51.032;6.998;2023-09-12T14:02:12;32.55;45.64
52656;SHT85;35474;51.032;6.998;2023-09-12T14:04:39;32.84;44.86
52656;SHT85;35474;51.032;6.998;2023-09-12T14:07:08;32.94;45.17
52656;SHT85;35474;51.032;6.998;2023-09-12T14:09:35;33.06;44.24
52656;SHT85;35474;51.032;6.998;2023-09-12T14:12:03;32.15;46.09
52656;SHT85;35474;51.032;6.998;2023-09-12T14:14:44;31.55;47.18
52656;SHT85;35474;51.032;6.998;2023-09-12T14:17:23;30.99;48.78
52656;SHT85;35474;51.032;6.998;2023-09-12T14:19:51;31.21;48.27
52656;SHT85;35474;51.032;6.998;2023-09-12T14:22:18;31.31;47.97
52656;SHT85;35474;51.032;6.998;2023-09-12T14:24:47;30.46;49.73
52656;SHT85;35474;51.032;6.998;2023-09-12T14:27:13;30.97;48.77
52656;SHT85;35474;51.032;6.998;2023-09-12T14:29:52;31.77;47.57
52656;SHT85;35474;51.032;6.998;2023-09-12T14:32:18;31.94;47.07
52656;SHT85;35474;51.032;6.998;2023-09-12T14:34:45;32.25;45.94
52656;SHT85;35474;51.032;6.998;2023-09-12T14:37:12;31.98;46.81
52656;SHT85;35474;51.032;6.998;2023-09-12T14:39:38;31.65;47.25
52656;SHT85;35474;51.032;6.998;2023-09-12T14:42:05;31.42;47.45
52656;SHT85;35474;51.032;6.998;2023-09-12T14:44:35;31.02;48.54
52656;SHT85;35474;51.032;6.998;2023-09-12T14:47:02;30.25;49.81
52656;SHT85;35474;51.032;6.998;2023-09-12T14:49:29;29.39;51.65
52656;SHT85;35474;51.032;6.998;2023-09-12T14:52:03;29.40;52.20
52656;SHT85;35474;51.032;6.998;2023-09-12T14:54:40;29.73;51.72
52656;SHT85;35474;51.032;6.998;2023-09-12T14:57:07;29.32;52.37
52656;SHT85;35474;51.032;6.998;2023-09-12T14:59:33;29.07;52.66
52656;SHT85;35474;51.032;6.998;2023-09-12T15:02:00;29.15;52.47
52656;SHT85;35474;51.032;6.998;2023-09-12T15:04:27;28.99;53.29
52656;SHT85;35474;51.032;6.998;2023-09-12T15:06:53;29.20;52.88
52656;SHT85;35474;51.032;6.998;2023-09-12T15:09:20;29.36;52.82
52656;SHT85;35474;51.032;6.998;2023-09-12T15:11:53;28.99;53.14
52656;SHT85;35474;51.032;6.998;2023-09-12T15:14:22;29.02;53.45
52656;SHT85;35474;51.032;6.998;2023-09-12T15:16:49;28.65;53.88
52656;SHT85;35474;51.032;6.998;2023-09-12T15:19:16;28.41;54.04
52656;SHT85;35474;51.032;6.998;2023-09-12T15:21:43;28.40;54.60
52656;SHT85;35474;51.032;6.998;2023-09-12T15:24:09;28.52;54.28
52656;SHT85;35474;51.032;6.998;2023-09-12T15:26:36;28.75;53.78
52656;SHT85;35474;51.032;6.998;2023-09-12T15:29:03;28.61;53.74
52656;SHT85;35474;51.032;6.998;2023-09-12T15:31:30;28.33;54.43
52656;SHT85;35474;51.032;6.998;2023-09-12T15:33:57;28.72;54.13
52656;SHT85;35474;51.032;6.998;2023-09-12T15:36:24;28.91;53.30
52656;SHT85;35474;51.032;6.998;2023-09-12T15:38:51;29.03;53.23
52656;SHT85;35474;51.032;6.998;2023-09-12T15:41:18;29.39;52.04
52656;SHT85;35474;51.032;6.998;2023-09-12T15:43:45;29.53;51.46
52656;SHT85;35474;51.032;6.998;2023-09-12T15:46:12;29.67;51.06
52656;SHT85;35474;51.032;6.998;2023-09-12T15:48:57;29.81;50.94
52656;SHT85;35474;51.032;6.998;2023-09-12T15:51:24;30.00;50.98
52656;SHT85;35474;51.032;6.998;2023-09-12T15:53:51;29.67;51.38
52656;SHT85;35474;51.032;6.998;2023-09-12T15:56:18;29.32;51.74
52656;SHT85;35474;51.032;6.998;2023-09-12T15:58:48;29.33;51.88
52656;SHT85;35474;51.032;6.998;2023-09-12T16:01:14;29.25;52.28